Aérodrome :
LOGIN :

S'inscrire | Disclaimer

   EN    FR    IT 

 










Légende :    VFR   VFR Marginal   IFR   IFR Intensif   IFR Très Intensif
Visi : 
Plafond : 
>= 8 km
>= 3000ft
5 à 8 km
1000 à 3000 ft
1500m à 5 km
500 à 1000 ft
800 à 1500m
200 à 500 ft
< 800m
< 200 ft
Symboles :   Orages  Brouillard  Fortes neiges  Fortes précipitations  Vent > 20 kt
SIGMETs :   Divers  Orages  Givrage  Turbulence  Onde Orograph.  Cendres Volcan.







- Altitude de l'aérodrome : 348 ft
- Code IATA : STN
- Voir les cartes d'approche


EGSS - London Stansted

DERNIER METAR :
  • 210950Z AUTO 09005KT 040V120 9999 NCD 18/09 Q1022

METARs EXPIRÉS :
  • 210920Z AUTO 10004KT 040V150 9999 NCD 17/09 Q1022
  • 210850Z AUTO VRB03KT 9999 NCD 16/08 Q1022
  • 210820Z AUTO 09004KT 050V120 9999 NCD 15/08 Q1023
  • 210750Z AUTO VRB03KT 9999 NCD 13/07 Q1023
  • 210720Z AUTO 03003KT 9999 NCD 12/07 Q1023

TAF TAF EGSS
Valide du 21 à 06h jusqu'au 22 à 12h UTC


210453Z 2106/2212 09006KT CAVOK
PROB30 2106/2107 6000
ATIS : +44 1279 669 325
Pas de NOTAMs connus pour ce terrain.



MET'MAP, la Météo Aéronautique d'un coup d'oeil ! - Copyright ORBIFLY Décembre 2007 - Disclaimer

ORBIFLY MET'MAP TEAM :

Programmation & Développement : Alexandra Zaïnal
Conception & Développement : Baudouin d'Aumeries
Co-Programmation & Développement : Marc-Olivier Méhu
Soutien technique & logistique : Manuel Goepfert

Contact : metmap@orbifly.com




SOURCES & CREDITS :

   NOAA